Alpharetta, Georgia
Current Conditions -  °F | °C
As of 7:53 PM on Tuesday 21 Oct 2014 (Local Time) from KPDK Reporting Station
Clear Clear  
Wind Chill: 63°   Ceiling: Unl
Heat Index: 63°   Visibility: 10mi
Dew Point: 47°   Wind: 7mph
Humidity: 56%   Direction: 350°N
Pressure: 29.99"   Gusts: NA
Location:  34.08°N, 84.29°W
Report Text: KPDK 212353Z 35006KT 10SM CLR 17/08 A2999 RMK AO2 SLP154 T01720083 10233 20172 53011
Loading
Personal Weather Stations






























Interactive Weather Map New forecast layout! Learn more

10-Day Weather Forecast

Advertisements
Track Severe Weather on mobile